sensor_id;sensor_type;location;lat;lon;timestamp;P1;durP1;ratioP1;P2;durP2;ratioP2
19161;SDS011;9713;48.140;11.530;2024-03-02T00:02:28;12.93;;;8.47;;
19161;SDS011;9713;48.140;11.530;2024-03-02T00:06:11;12.63;;;8.90;;
19161;SDS011;9713;48.140;11.530;2024-03-02T00:09:54;11.10;;;7.83;;
19161;SDS011;9713;48.140;11.530;2024-03-02T00:13:42;13.77;;;9.13;;
19161;SDS011;9713;48.140;11.530;2024-03-02T00:17:26;14.77;;;9.63;;
19161;SDS011;9713;48.140;11.530;2024-03-02T00:21:10;13.40;;;9.10;;
19161;SDS011;9713;48.140;11.530;2024-03-02T00:24:57;12.73;;;8.90;;
19161;SDS011;9713;48.140;11.530;2024-03-02T00:28:45;13.33;;;9.40;;
19161;SDS011;9713;48.140;11.530;2024-03-02T00:32:35;14.30;;;9.23;;
19161;SDS011;9713;48.140;11.530;2024-03-02T00:36:21;14.47;;;9.50;;
19161;SDS011;9713;48.140;11.530;2024-03-02T00:40:06;15.97;;;9.23;;
19161;SDS011;9713;48.140;11.530;2024-03-02T00:44:04;16.03;;;9.53;;
19161;SDS011;9713;48.140;11.530;2024-03-02T00:47:47;13.23;;;9.23;;
19161;SDS011;9713;48.140;11.530;2024-03-02T00:51:31;14.53;;;9.20;;
19161;SDS011;9713;48.140;11.530;2024-03-02T00:55:15;13.33;;;9.40;;
19161;SDS011;9713;48.140;11.530;2024-03-02T00:58:58;13.43;;;8.80;;
19161;SDS011;9713;48.140;11.530;2024-03-02T01:02:43;13.50;;;9.00;;
19161;SDS011;9713;48.140;11.530;2024-03-02T01:06:28;12.10;;;8.77;;
19161;SDS011;9713;48.140;11.530;2024-03-02T01:10:11;12.37;;;8.90;;
19161;SDS011;9713;48.140;11.530;2024-03-02T01:13:54;13.27;;;8.80;;
19161;SDS011;9713;48.140;11.530;2024-03-02T01:17:37;12.73;;;9.37;;
19161;SDS011;9713;48.140;11.530;2024-03-02T01:21:21;13.83;;;9.47;;
19161;SDS011;9713;48.140;11.530;2024-03-02T01:25:05;12.17;;;9.07;;
19161;SDS011;9713;48.140;11.530;2024-03-02T01:28:48;14.97;;;9.47;;
19161;SDS011;9713;48.140;11.530;2024-03-02T01:32:31;14.10;;;9.53;;
19161;SDS011;9713;48.140;11.530;2024-03-02T01:36:14;13.33;;;9.33;;
19161;SDS011;9713;48.140;11.530;2024-03-02T01:39:59;13.90;;;9.77;;
19161;SDS011;9713;48.140;11.530;2024-03-02T01:43:42;13.03;;;9.30;;
19161;SDS011;9713;48.140;11.530;2024-03-02T01:47:25;13.53;;;9.10;;
19161;SDS011;9713;48.140;11.530;2024-03-02T01:51:08;12.30;;;9.00;;
19161;SDS011;9713;48.140;11.530;2024-03-02T01:54:51;14.10;;;9.57;;
19161;SDS011;9713;48.140;11.530;2024-03-02T01:58:36;13.30;;;9.13;;
19161;SDS011;9713;48.140;11.530;2024-03-02T02:02:19;13.03;;;9.30;;
19161;SDS011;9713;48.140;11.530;2024-03-02T02:06:03;13.83;;;9.27;;
19161;SDS011;9713;48.140;11.530;2024-03-02T02:09:46;14.33;;;9.43;;
19161;SDS011;9713;48.140;11.530;2024-03-02T02:13:29;13.33;;;8.40;;
19161;SDS011;9713;48.140;11.530;2024-03-02T02:17:14;11.93;;;9.03;;
19161;SDS011;9713;48.140;11.530;2024-03-02T02:20:57;13.60;;;8.70;;
19161;SDS011;9713;48.140;11.530;2024-03-02T02:24:41;12.23;;;8.60;;
19161;SDS011;9713;48.140;11.530;2024-03-02T02:28:24;12.87;;;8.97;;
19161;SDS011;9713;48.140;11.530;2024-03-02T02:32:07;13.20;;;8.37;;
19161;SDS011;9713;48.140;11.530;2024-03-02T02:35:50;11.47;;;8.33;;
19161;SDS011;9713;48.140;11.530;2024-03-02T02:39:33;14.00;;;8.77;;
19161;SDS011;9713;48.140;11.530;2024-03-02T02:43:18;13.80;;;8.90;;
19161;SDS011;9713;48.140;11.530;2024-03-02T02:47:01;12.70;;;8.57;;
19161;SDS011;9713;48.140;11.530;2024-03-02T02:50:44;13.50;;;8.50;;
19161;SDS011;9713;48.140;11.530;2024-03-02T02:54:27;13.10;;;8.60;;
19161;SDS011;9713;48.140;11.530;2024-03-02T02:58:10;15.80;;;8.90;;
19161;SDS011;9713;48.140;11.530;2024-03-02T03:01:54;14.40;;;9.03;;
19161;SDS011;9713;48.140;11.530;2024-03-02T03:05:37;14.60;;;9.43;;
19161;SDS011;9713;48.140;11.530;2024-03-02T03:09:20;13.57;;;9.00;;
19161;SDS011;9713;48.140;11.530;2024-03-02T03:13:03;13.23;;;8.87;;
19161;SDS011;9713;48.140;11.530;2024-03-02T03:16:49;13.83;;;8.90;;
19161;SDS011;9713;48.140;11.530;2024-03-02T03:20:34;15.53;;;9.50;;
19161;SDS011;9713;48.140;11.530;2024-03-02T03:24:17;13.17;;;8.60;;
19161;SDS011;9713;48.140;11.530;2024-03-02T03:28:00;16.80;;;9.70;;
19161;SDS011;9713;48.140;11.530;2024-03-02T03:31:45;14.70;;;9.33;;
19161;SDS011;9713;48.140;11.530;2024-03-02T03:35:28;13.77;;;9.07;;
19161;SDS011;9713;48.140;11.530;2024-03-02T03:39:12;13.70;;;9.00;;
19161;SDS011;9713;48.140;11.530;2024-03-02T03:42:55;14.93;;;9.23;;
19161;SDS011;9713;48.140;11.530;2024-03-02T03:46:39;15.00;;;9.83;;
19161;SDS011;9713;48.140;11.530;2024-03-02T03:50:22;16.07;;;10.60;;
19161;SDS011;9713;48.140;11.530;2024-03-02T03:54:05;18.80;;;11.23;;
19161;SDS011;9713;48.140;11.530;2024-03-02T03:57:52;17.53;;;11.27;;
19161;SDS011;9713;48.140;11.530;2024-03-02T04:01:35;17.80;;;11.77;;
19161;SDS011;9713;48.140;11.530;2024-03-02T04:05:18;17.03;;;11.67;;
19161;SDS011;9713;48.140;11.530;2024-03-02T04:09:02;17.37;;;11.47;;
19161;SDS011;9713;48.140;11.530;2024-03-02T04:12:46;16.23;;;11.40;;
19161;SDS011;9713;48.140;11.530;2024-03-02T04:16:30;16.37;;;10.97;;
19161;SDS011;9713;48.140;11.530;2024-03-02T04:20:13;17.20;;;11.03;;
19161;SDS011;9713;48.140;11.530;2024-03-02T04:23:56;18.20;;;11.10;;
19161;SDS011;9713;48.140;11.530;2024-03-02T04:27:41;17.33;;;10.23;;
19161;SDS011;9713;48.140;11.530;2024-03-02T04:31:24;16.40;;;10.50;;
19161;SDS011;9713;48.140;11.530;2024-03-02T04:35:08;15.47;;;10.70;;
19161;SDS011;9713;48.140;11.530;2024-03-02T04:38:51;15.17;;;10.30;;
19161;SDS011;9713;48.140;11.530;2024-03-02T04:42:34;14.63;;;11.00;;
19161;SDS011;9713;48.140;11.530;2024-03-02T04:46:17;17.93;;;11.80;;
19161;SDS011;9713;48.140;11.530;2024-03-02T04:50:00;19.60;;;12.57;;
19161;SDS011;9713;48.140;11.530;2024-03-02T04:53:45;19.70;;;12.17;;
19161;SDS011;9713;48.140;11.530;2024-03-02T04:57:28;22.40;;;12.40;;
19161;SDS011;9713;48.140;11.530;2024-03-02T05:01:11;22.20;;;12.53;;
19161;SDS011;9713;48.140;11.530;2024-03-02T05:04:54;19.83;;;12.20;;
19161;SDS011;9713;48.140;11.530;2024-03-02T05:08:37;19.67;;;12.40;;
19161;SDS011;9713;48.140;11.530;2024-03-02T05:12:21;18.33;;;12.43;;
19161;SDS011;9713;48.140;11.530;2024-03-02T05:16:37;19.60;;;12.17;;
19161;SDS011;9713;48.140;11.530;2024-03-02T05:20:20;18.87;;;13.00;;
19161;SDS011;9713;48.140;11.530;2024-03-02T05:24:03;23.20;;;12.63;;
19161;SDS011;9713;48.140;11.530;2024-03-02T05:27:47;18.83;;;12.97;;
19161;SDS011;9713;48.140;11.530;2024-03-02T05:31:30;19.13;;;12.07;;
19161;SDS011;9713;48.140;11.530;2024-03-02T05:35:13;20.47;;;13.00;;
19161;SDS011;9713;48.140;11.530;2024-03-02T05:38:57;18.90;;;12.73;;
19161;SDS011;9713;48.140;11.530;2024-03-02T05:42:40;21.40;;;13.20;;
19161;SDS011;9713;48.140;11.530;2024-03-02T05:46:25;22.83;;;13.73;;
19161;SDS011;9713;48.140;11.530;2024-03-02T05:50:08;19.63;;;12.90;;
19161;SDS011;9713;48.140;11.530;2024-03-02T05:53:57;22.40;;;13.90;;
19161;SDS011;9713;48.140;11.530;2024-03-02T05:57:40;19.83;;;13.27;;
19161;SDS011;9713;48.140;11.530;2024-03-02T06:01:38;19.07;;;13.27;;
19161;SDS011;9713;48.140;11.530;2024-03-02T06:05:21;22.30;;;13.77;;
19161;SDS011;9713;48.140;11.530;2024-03-02T06:09:05;23.67;;;13.80;;
19161;SDS011;9713;48.140;11.530;2024-03-02T06:12:49;22.43;;;14.37;;
19161;SDS011;9713;48.140;11.530;2024-03-02T06:16:32;21.50;;;14.13;;
19161;SDS011;9713;48.140;11.530;2024-03-02T06:20:17;23.87;;;14.37;;
19161;SDS011;9713;48.140;11.530;2024-03-02T06:24:00;23.60;;;14.07;;
19161;SDS011;9713;48.140;11.530;2024-03-02T06:27:44;23.80;;;15.20;;
19161;SDS011;9713;48.140;11.530;2024-03-02T06:31:27;23.67;;;14.33;;
19161;SDS011;9713;48.140;11.530;2024-03-02T06:35:09;24.30;;;14.20;;
19161;SDS011;9713;48.140;11.530;2024-03-02T06:38:55;24.83;;;14.40;;
19161;SDS011;9713;48.140;11.530;2024-03-02T06:42:38;23.67;;;14.13;;
19161;SDS011;9713;48.140;11.530;2024-03-02T06:46:21;22.60;;;14.00;;
19161;SDS011;9713;48.140;11.530;2024-03-02T06:50:04;22.53;;;14.53;;
19161;SDS011;9713;48.140;11.530;2024-03-02T06:53:48;22.93;;;14.37;;
19161;SDS011;9713;48.140;11.530;2024-03-02T06:57:32;24.07;;;14.93;;
19161;SDS011;9713;48.140;11.530;2024-03-02T07:01:15;25.93;;;14.60;;
19161;SDS011;9713;48.140;11.530;2024-03-02T07:04:58;24.63;;;15.43;;
19161;SDS011;9713;48.140;11.530;2024-03-02T07:08:41;22.73;;;13.70;;
19161;SDS011;9713;48.140;11.530;2024-03-02T07:12:24;28.17;;;15.87;;
19161;SDS011;9713;48.140;11.530;2024-03-02T07:16:09;25.43;;;14.47;;
19161;SDS011;9713;48.140;11.530;2024-03-02T07:20:06;25.90;;;14.57;;
19161;SDS011;9713;48.140;11.530;2024-03-02T07:23:49;26.87;;;15.80;;
19161;SDS011;9713;48.140;11.530;2024-03-02T07:27:33;27.50;;;15.93;;
19161;SDS011;9713;48.140;11.530;2024-03-02T07:31:18;26.73;;;16.47;;
19161;SDS011;9713;48.140;11.530;2024-03-02T07:35:01;29.67;;;16.97;;
19161;SDS011;9713;48.140;11.530;2024-03-02T07:38:45;29.47;;;16.80;;
19161;SDS011;9713;48.140;11.530;2024-03-02T07:42:31;29.37;;;16.93;;
19161;SDS011;9713;48.140;11.530;2024-03-02T07:46:14;28.33;;;16.20;;
19161;SDS011;9713;48.140;11.530;2024-03-02T07:49:59;29.13;;;16.07;;
19161;SDS011;9713;48.140;11.530;2024-03-02T07:53:42;28.27;;;16.07;;
19161;SDS011;9713;48.140;11.530;2024-03-02T07:57:27;24.80;;;14.97;;
19161;SDS011;9713;48.140;11.530;2024-03-02T08:01:10;27.63;;;14.57;;
19161;SDS011;9713;48.140;11.530;2024-03-02T08:04:53;27.57;;;14.30;;
19161;SDS011;9713;48.140;11.530;2024-03-02T08:08:38;20.63;;;12.60;;
19161;SDS011;9713;48.140;11.530;2024-03-02T08:12:21;23.13;;;13.87;;
19161;SDS011;9713;48.140;11.530;2024-03-02T08:16:05;21.23;;;11.80;;
19161;SDS011;9713;48.140;11.530;2024-03-02T08:19:51;18.37;;;11.63;;
19161;SDS011;9713;48.140;11.530;2024-03-02T08:23:34;19.17;;;11.03;;
19161;SDS011;9713;48.140;11.530;2024-03-02T08:27:19;19.67;;;12.20;;
19161;SDS011;9713;48.140;11.530;2024-03-02T08:31:03;18.00;;;10.07;;
19161;SDS011;9713;48.140;11.530;2024-03-02T08:34:46;14.57;;;9.40;;
19161;SDS011;9713;48.140;11.530;2024-03-02T08:38:29;15.03;;;9.80;;
19161;SDS011;9713;48.140;11.530;2024-03-02T08:42:12;16.70;;;9.73;;
19161;SDS011;9713;48.140;11.530;2024-03-02T08:45:57;15.80;;;9.63;;
19161;SDS011;9713;48.140;11.530;2024-03-02T08:49:40;17.07;;;9.80;;
19161;SDS011;9713;48.140;11.530;2024-03-02T08:53:23;14.20;;;9.23;;
19161;SDS011;9713;48.140;11.530;2024-03-02T08:57:06;12.40;;;8.43;;
19161;SDS011;9713;48.140;11.530;2024-03-02T09:00:49;15.80;;;9.50;;
19161;SDS011;9713;48.140;11.530;2024-03-02T09:04:34;12.77;;;7.97;;
19161;SDS011;9713;48.140;11.530;2024-03-02T09:08:17;14.27;;;8.93;;
19161;SDS011;9713;48.140;11.530;2024-03-02T09:12:00;13.17;;;8.53;;
19161;SDS011;9713;48.140;11.530;2024-03-02T09:15:43;11.70;;;7.83;;
19161;SDS011;9713;48.140;11.530;2024-03-02T09:19:26;19.13;;;10.07;;
19161;SDS011;9713;48.140;11.530;2024-03-02T09:23:10;19.10;;;11.83;;
19161;SDS011;9713;48.140;11.530;2024-03-02T09:26:53;20.77;;;11.47;;
19161;SDS011;9713;48.140;11.530;2024-03-02T09:30:36;19.10;;;12.27;;
19161;SDS011;9713;48.140;11.530;2024-03-02T09:34:19;20.17;;;12.93;;
19161;SDS011;9713;48.140;11.530;2024-03-02T09:38:02;23.57;;;14.50;;
19161;SDS011;9713;48.140;11.530;2024-03-02T09:41:47;24.17;;;13.60;;
19161;SDS011;9713;48.140;11.530;2024-03-02T09:45:31;19.47;;;12.57;;
19161;SDS011;9713;48.140;11.530;2024-03-02T09:49:17;20.70;;;13.80;;
19161;SDS011;9713;48.140;11.530;2024-03-02T09:53:00;18.67;;;12.37;;
19161;SDS011;9713;48.140;11.530;2024-03-02T09:56:43;19.43;;;12.73;;
19161;SDS011;9713;48.140;11.530;2024-03-02T10:00:28;15.90;;;11.17;;
19161;SDS011;9713;48.140;11.530;2024-03-02T10:04:11;22.27;;;11.73;;
19161;SDS011;9713;48.140;11.530;2024-03-02T10:07:58;13.23;;;9.17;;
19161;SDS011;9713;48.140;11.530;2024-03-02T10:11:43;15.73;;;9.57;;
19161;SDS011;9713;48.140;11.530;2024-03-02T10:15:27;12.87;;;8.67;;
19161;SDS011;9713;48.140;11.530;2024-03-02T10:19:17;19.20;;;10.00;;
19161;SDS011;9713;48.140;11.530;2024-03-02T10:23:09;13.47;;;8.77;;
19161;SDS011;9713;48.140;11.530;2024-03-02T10:26:53;9.80;;;6.77;;
19161;SDS011;9713;48.140;11.530;2024-03-02T10:30:39;13.17;;;8.27;;
19161;SDS011;9713;48.140;11.530;2024-03-02T10:34:22;11.63;;;7.40;;
19161;SDS011;9713;48.140;11.530;2024-03-02T10:38:05;10.73;;;6.23;;
19161;SDS011;9713;48.140;11.530;2024-03-02T10:41:48;9.73;;;6.40;;
19161;SDS011;9713;48.140;11.530;2024-03-02T10:45:34;9.43;;;6.33;;
19161;SDS011;9713;48.140;11.530;2024-03-02T10:49:19;12.10;;;7.30;;
19161;SDS011;9713;48.140;11.530;2024-03-02T10:53:04;16.07;;;7.00;;
19161;SDS011;9713;48.140;11.530;2024-03-02T10:56:47;9.60;;;6.27;;
19161;SDS011;9713;48.140;11.530;2024-03-02T11:00:31;11.07;;;6.90;;
19161;SDS011;9713;48.140;11.530;2024-03-02T11:04:17;8.13;;;5.37;;
19161;SDS011;9713;48.140;11.530;2024-03-02T11:08:03;8.57;;;5.73;;
19161;SDS011;9713;48.140;11.530;2024-03-02T11:11:54;9.40;;;5.57;;
19161;SDS011;9713;48.140;11.530;2024-03-02T11:15:39;8.77;;;5.43;;
19161;SDS011;9713;48.140;11.530;2024-03-02T11:19:24;8.53;;;5.50;;
19161;SDS011;9713;48.140;11.530;2024-03-02T11:23:08;11.37;;;6.13;;
19161;SDS011;9713;48.140;11.530;2024-03-02T11:26:52;11.50;;;6.87;;
19161;SDS011;9713;48.140;11.530;2024-03-02T11:30:50;20.27;;;10.83;;
19161;SDS011;9713;48.140;11.530;2024-03-02T11:34:35;19.00;;;10.97;;
19161;SDS011;9713;48.140;11.530;2024-03-02T11:38:21;19.03;;;10.67;;
19161;SDS011;9713;48.140;11.530;2024-03-02T11:42:07;17.33;;;10.10;;
19161;SDS011;9713;48.140;11.530;2024-03-02T11:45:56;17.23;;;9.03;;
19161;SDS011;9713;48.140;11.530;2024-03-02T11:49:42;20.53;;;10.13;;
19161;SDS011;9713;48.140;11.530;2024-03-02T11:53:27;17.20;;;9.80;;
19161;SDS011;9713;48.140;11.530;2024-03-02T11:57:14;18.93;;;11.17;;
19161;SDS011;9713;48.140;11.530;2024-03-02T12:00:58;20.67;;;10.47;;
19161;SDS011;9713;48.140;11.530;2024-03-02T12:04:43;17.63;;;9.60;;
19161;SDS011;9713;48.140;11.530;2024-03-02T12:08:26;13.83;;;8.77;;
19161;SDS011;9713;48.140;11.530;2024-03-02T12:12:09;15.97;;;8.47;;
19161;SDS011;9713;48.140;11.530;2024-03-02T12:15:53;14.40;;;8.73;;
19161;SDS011;9713;48.140;11.530;2024-03-02T12:19:37;12.30;;;7.53;;
19161;SDS011;9713;48.140;11.530;2024-03-02T12:23:21;18.40;;;10.07;;
19161;SDS011;9713;48.140;11.530;2024-03-02T12:27:04;16.73;;;9.50;;
19161;SDS011;9713;48.140;11.530;2024-03-02T12:30:48;17.03;;;8.50;;
19161;SDS011;9713;48.140;11.530;2024-03-02T12:34:31;18.83;;;9.10;;
19161;SDS011;9713;48.140;11.530;2024-03-02T12:38:15;17.33;;;8.57;;
19161;SDS011;9713;48.140;11.530;2024-03-02T12:41:59;17.27;;;10.07;;
19161;SDS011;9713;48.140;11.530;2024-03-02T12:45:42;16.73;;;10.00;;
19161;SDS011;9713;48.140;11.530;2024-03-02T12:49:25;19.57;;;11.07;;
19161;SDS011;9713;48.140;11.530;2024-03-02T12:53:13;18.13;;;10.67;;
19161;SDS011;9713;48.140;11.530;2024-03-02T12:56:59;19.73;;;11.73;;
19161;SDS011;9713;48.140;11.530;2024-03-02T13:00:42;14.87;;;9.13;;
19161;SDS011;9713;48.140;11.530;2024-03-02T13:04:26;24.70;;;15.17;;
19161;SDS011;9713;48.140;11.530;2024-03-02T13:08:10;24.70;;;13.80;;
19161;SDS011;9713;48.140;11.530;2024-03-02T13:11:54;23.40;;;13.30;;
19161;SDS011;9713;48.140;11.530;2024-03-02T13:15:39;20.70;;;12.90;;
19161;SDS011;9713;48.140;11.530;2024-03-02T13:19:23;17.27;;;10.37;;
19161;SDS011;9713;48.140;11.530;2024-03-02T13:23:06;18.97;;;10.87;;
19161;SDS011;9713;48.140;11.530;2024-03-02T13:26:49;19.97;;;12.93;;
19161;SDS011;9713;48.140;11.530;2024-03-02T13:30:36;20.93;;;13.67;;
19161;SDS011;9713;48.140;11.530;2024-03-02T13:34:21;17.67;;;12.27;;
19161;SDS011;9713;48.140;11.530;2024-03-02T13:38:04;26.43;;;14.27;;
19161;SDS011;9713;48.140;11.530;2024-03-02T13:41:47;21.30;;;14.07;;
19161;SDS011;9713;48.140;11.530;2024-03-02T13:45:34;20.23;;;13.63;;
19161;SDS011;9713;48.140;11.530;2024-03-02T13:49:18;20.87;;;13.90;;
19161;SDS011;9713;48.140;11.530;2024-03-02T13:53:02;21.93;;;14.70;;
19161;SDS011;9713;48.140;11.530;2024-03-02T13:56:46;22.27;;;14.43;;
19161;SDS011;9713;48.140;11.530;2024-03-02T14:00:29;21.10;;;12.80;;
19161;SDS011;9713;48.140;11.530;2024-03-02T14:04:12;20.20;;;13.27;;
19161;SDS011;9713;48.140;11.530;2024-03-02T14:07:55;19.63;;;12.03;;
19161;SDS011;9713;48.140;11.530;2024-03-02T14:11:39;17.37;;;11.07;;
19161;SDS011;9713;48.140;11.530;2024-03-02T14:15:22;19.87;;;11.43;;
19161;SDS011;9713;48.140;11.530;2024-03-02T14:19:06;23.57;;;11.80;;
19161;SDS011;9713;48.140;11.530;2024-03-02T14:22:51;15.77;;;9.23;;
19161;SDS011;9713;48.140;11.530;2024-03-02T14:26:33;12.60;;;8.63;;
19161;SDS011;9713;48.140;11.530;2024-03-02T14:30:19;16.73;;;8.87;;
19161;SDS011;9713;48.140;11.530;2024-03-02T14:34:02;14.50;;;9.00;;
19161;SDS011;9713;48.140;11.530;2024-03-02T14:37:45;16.40;;;10.33;;
19161;SDS011;9713;48.140;11.530;2024-03-02T14:41:28;15.90;;;10.30;;
19161;SDS011;9713;48.140;11.530;2024-03-02T14:45:12;17.50;;;10.13;;
19161;SDS011;9713;48.140;11.530;2024-03-02T14:48:57;18.90;;;11.47;;
19161;SDS011;9713;48.140;11.530;2024-03-02T14:52:40;18.90;;;11.83;;
19161;SDS011;9713;48.140;11.530;2024-03-02T14:56:26;18.83;;;11.07;;
19161;SDS011;9713;48.140;11.530;2024-03-02T15:00:10;18.23;;;11.27;;
19161;SDS011;9713;48.140;11.530;2024-03-02T15:03:54;16.90;;;9.87;;
19161;SDS011;9713;48.140;11.530;2024-03-02T15:07:39;13.50;;;9.57;;
19161;SDS011;9713;48.140;11.530;2024-03-02T15:11:22;14.90;;;9.43;;
19161;SDS011;9713;48.140;11.530;2024-03-02T15:15:08;16.40;;;10.00;;
19161;SDS011;9713;48.140;11.530;2024-03-02T15:18:52;19.17;;;10.43;;
19161;SDS011;9713;48.140;11.530;2024-03-02T15:22:38;18.27;;;11.70;;
19161;SDS011;9713;48.140;11.530;2024-03-02T15:26:21;19.13;;;10.77;;
19161;SDS011;9713;48.140;11.530;2024-03-02T15:30:05;16.47;;;11.10;;
19161;SDS011;9713;48.140;11.530;2024-03-02T15:33:49;17.07;;;10.63;;
19161;SDS011;9713;48.140;11.530;2024-03-02T15:37:32;20.43;;;11.40;;
19161;SDS011;9713;48.140;11.530;2024-03-02T15:41:16;18.67;;;11.47;;
19161;SDS011;9713;48.140;11.530;2024-03-02T15:44:59;22.83;;;13.27;;
19161;SDS011;9713;48.140;11.530;2024-03-02T15:48:42;17.47;;;12.23;;
19161;SDS011;9713;48.140;11.530;2024-03-02T15:52:26;19.60;;;12.57;;
19161;SDS011;9713;48.140;11.530;2024-03-02T15:56:09;17.80;;;12.20;;
19161;SDS011;9713;48.140;11.530;2024-03-02T15:59:53;17.13;;;11.53;;
19161;SDS011;9713;48.140;11.530;2024-03-02T16:03:37;20.57;;;13.03;;
19161;SDS011;9713;48.140;11.530;2024-03-02T16:07:20;17.37;;;10.13;;
19161;SDS011;9713;48.140;11.530;2024-03-02T16:11:03;14.37;;;9.73;;
19161;SDS011;9713;48.140;11.530;2024-03-02T16:14:46;10.97;;;7.00;;
19161;SDS011;9713;48.140;11.530;2024-03-02T16:18:31;14.53;;;9.97;;
19161;SDS011;9713;48.140;11.530;2024-03-02T16:22:15;18.10;;;12.10;;
19161;SDS011;9713;48.140;11.530;2024-03-02T16:25:58;20.83;;;13.30;;
19161;SDS011;9713;48.140;11.530;2024-03-02T16:29:41;23.43;;;14.20;;
19161;SDS011;9713;48.140;11.530;2024-03-02T16:33:24;24.83;;;14.43;;
19161;SDS011;9713;48.140;11.530;2024-03-02T16:37:09;24.50;;;14.30;;
19161;SDS011;9713;48.140;11.530;2024-03-02T16:40:52;23.30;;;15.30;;
19161;SDS011;9713;48.140;11.530;2024-03-02T16:44:38;26.73;;;15.67;;
19161;SDS011;9713;48.140;11.530;2024-03-02T16:48:21;27.90;;;15.40;;
19161;SDS011;9713;48.140;11.530;2024-03-02T16:52:04;26.40;;;14.40;;
19161;SDS011;9713;48.140;11.530;2024-03-02T16:55:48;23.80;;;14.10;;
19161;SDS011;9713;48.140;11.530;2024-03-02T16:59:31;27.03;;;14.47;;
19161;SDS011;9713;48.140;11.530;2024-03-02T17:03:14;25.10;;;14.90;;
19161;SDS011;9713;48.140;11.530;2024-03-02T17:06:59;22.00;;;13.17;;
19161;SDS011;9713;48.140;11.530;2024-03-02T17:10:43;22.73;;;12.53;;
19161;SDS011;9713;48.140;11.530;2024-03-02T17:14:28;20.73;;;11.53;;
19161;SDS011;9713;48.140;11.530;2024-03-02T17:18:15;18.63;;;11.00;;
19161;SDS011;9713;48.140;11.530;2024-03-02T17:21:58;18.63;;;10.90;;
19161;SDS011;9713;48.140;11.530;2024-03-02T17:25:41;20.60;;;12.03;;
19161;SDS011;9713;48.140;11.530;2024-03-02T17:29:24;33.00;;;12.27;;
19161;SDS011;9713;48.140;11.530;2024-03-02T17:33:09;21.43;;;12.13;;
19161;SDS011;9713;48.140;11.530;2024-03-02T17:36:52;24.67;;;13.47;;
19161;SDS011;9713;48.140;11.530;2024-03-02T17:40:35;27.23;;;14.00;;
19161;SDS011;9713;48.140;11.530;2024-03-02T17:44:18;24.57;;;14.20;;
19161;SDS011;9713;48.140;11.530;2024-03-02T17:48:01;24.53;;;14.27;;
19161;SDS011;9713;48.140;11.530;2024-03-02T17:51:46;29.17;;;15.20;;
19161;SDS011;9713;48.140;11.530;2024-03-02T17:55:29;27.27;;;16.07;;
19161;SDS011;9713;48.140;11.530;2024-03-02T17:59:12;29.47;;;16.27;;
19161;SDS011;9713;48.140;11.530;2024-03-02T18:02:55;30.43;;;15.97;;
19161;SDS011;9713;48.140;11.530;2024-03-02T18:06:38;37.07;;;18.50;;
19161;SDS011;9713;48.140;11.530;2024-03-02T18:10:22;36.73;;;18.90;;
19161;SDS011;9713;48.140;11.530;2024-03-02T18:14:05;44.33;;;23.17;;
19161;SDS011;9713;48.140;11.530;2024-03-02T18:17:48;38.83;;;17.93;;
19161;SDS011;9713;48.140;11.530;2024-03-02T18:21:32;37.67;;;19.50;;
19161;SDS011;9713;48.140;11.530;2024-03-02T18:25:15;59.97;;;24.57;;
19161;SDS011;9713;48.140;11.530;2024-03-02T18:28:59;35.00;;;18.43;;
19161;SDS011;9713;48.140;11.530;2024-03-02T18:32:42;37.83;;;19.57;;
19161;SDS011;9713;48.140;11.530;2024-03-02T18:36:25;41.03;;;20.73;;
19161;SDS011;9713;48.140;11.530;2024-03-02T18:40:08;36.97;;;20.20;;
19161;SDS011;9713;48.140;11.530;2024-03-02T18:43:52;39.97;;;20.37;;
19161;SDS011;9713;48.140;11.530;2024-03-02T18:47:37;41.60;;;21.60;;
19161;SDS011;9713;48.140;11.530;2024-03-02T18:51:20;38.97;;;20.43;;
19161;SDS011;9713;48.140;11.530;2024-03-02T18:55:04;41.03;;;20.67;;
19161;SDS011;9713;48.140;11.530;2024-03-02T18:58:49;40.10;;;21.03;;
19161;SDS011;9713;48.140;11.530;2024-03-02T19:02:32;37.33;;;20.40;;
19161;SDS011;9713;48.140;11.530;2024-03-02T19:06:16;37.13;;;19.57;;
19161;SDS011;9713;48.140;11.530;2024-03-02T19:10:00;37.77;;;20.03;;
19161;SDS011;9713;48.140;11.530;2024-03-02T19:13:46;40.20;;;20.87;;
19161;SDS011;9713;48.140;11.530;2024-03-02T19:17:29;39.90;;;21.27;;
19161;SDS011;9713;48.140;11.530;2024-03-02T19:21:13;46.37;;;23.60;;
19161;SDS011;9713;48.140;11.530;2024-03-02T19:24:57;58.50;;;27.60;;
19161;SDS011;9713;48.140;11.530;2024-03-02T19:28:42;41.80;;;23.10;;
19161;SDS011;9713;48.140;11.530;2024-03-02T19:32:30;60.07;;;28.97;;
19161;SDS011;9713;48.140;11.530;2024-03-02T19:36:13;51.40;;;26.50;;
19161;SDS011;9713;48.140;11.530;2024-03-02T19:39:58;45.07;;;24.70;;
19161;SDS011;9713;48.140;11.530;2024-03-02T19:43:41;44.87;;;24.03;;
19161;SDS011;9713;48.140;11.530;2024-03-02T19:47:24;44.33;;;23.90;;
19161;SDS011;9713;48.140;11.530;2024-03-02T19:51:07;49.37;;;24.90;;
19161;SDS011;9713;48.140;11.530;2024-03-02T19:54:51;44.97;;;22.60;;
19161;SDS011;9713;48.140;11.530;2024-03-02T19:58:35;64.10;;;31.90;;
19161;SDS011;9713;48.140;11.530;2024-03-02T20:02:24;65.93;;;32.00;;
19161;SDS011;9713;48.140;11.530;2024-03-02T20:06:10;58.27;;;27.93;;
19161;SDS011;9713;48.140;11.530;2024-03-02T20:09:53;50.47;;;25.07;;
19161;SDS011;9713;48.140;11.530;2024-03-02T20:13:38;63.53;;;30.97;;
19161;SDS011;9713;48.140;11.530;2024-03-02T20:17:21;44.50;;;24.17;;
19161;SDS011;9713;48.140;11.530;2024-03-02T20:21:05;52.83;;;28.17;;
19161;SDS011;9713;48.140;11.530;2024-03-02T20:24:48;52.73;;;26.60;;
19161;SDS011;9713;48.140;11.530;2024-03-02T20:28:32;57.37;;;26.97;;
19161;SDS011;9713;48.140;11.530;2024-03-02T20:32:17;54.20;;;27.43;;
19161;SDS011;9713;48.140;11.530;2024-03-02T20:36:01;54.40;;;26.50;;
19161;SDS011;9713;48.140;11.530;2024-03-02T20:39:45;50.97;;;26.30;;
19161;SDS011;9713;48.140;11.530;2024-03-02T20:43:34;48.87;;;24.83;;
19161;SDS011;9713;48.140;11.530;2024-03-02T20:47:19;51.60;;;25.13;;
19161;SDS011;9713;48.140;11.530;2024-03-02T20:51:05;50.80;;;27.60;;
19161;SDS011;9713;48.140;11.530;2024-03-02T20:54:51;55.40;;;29.53;;
19161;SDS011;9713;48.140;11.530;2024-03-02T20:58:37;51.63;;;28.03;;
19161;SDS011;9713;48.140;11.530;2024-03-02T21:02:24;49.40;;;25.60;;
19161;SDS011;9713;48.140;11.530;2024-03-02T21:06:08;50.70;;;26.27;;
19161;SDS011;9713;48.140;11.530;2024-03-02T21:09:52;52.90;;;27.37;;
19161;SDS011;9713;48.140;11.530;2024-03-02T21:13:38;52.17;;;26.83;;
19161;SDS011;9713;48.140;11.530;2024-03-02T21:17:23;56.40;;;27.30;;
19161;SDS011;9713;48.140;11.530;2024-03-02T21:21:09;53.53;;;27.87;;
19161;SDS011;9713;48.140;11.530;2024-03-02T21:24:53;50.87;;;25.83;;
19161;SDS011;9713;48.140;11.530;2024-03-02T21:28:42;57.70;;;28.43;;
19161;SDS011;9713;48.140;11.530;2024-03-02T21:32:30;53.23;;;26.67;;
19161;SDS011;9713;48.140;11.530;2024-03-02T21:36:17;47.67;;;25.57;;
19161;SDS011;9713;48.140;11.530;2024-03-02T21:40:01;49.67;;;25.93;;
19161;SDS011;9713;48.140;11.530;2024-03-02T21:43:46;61.37;;;28.77;;
19161;SDS011;9713;48.140;11.530;2024-03-02T21:47:31;52.53;;;26.97;;
19161;SDS011;9713;48.140;11.530;2024-03-02T21:51:17;67.40;;;34.63;;
19161;SDS011;9713;48.140;11.530;2024-03-02T21:55:00;58.17;;;28.53;;
19161;SDS011;9713;48.140;11.530;2024-03-02T21:58:44;56.13;;;27.90;;